sensor_id;sensor_type;location;lat;lon;timestamp;P1;durP1;ratioP1;P2;durP2;ratioP2
22015;SDS011;11172;51.698;-0.292;2022-07-29T00:00:09;633.00;;;569.55;;
22015;SDS011;11172;51.698;-0.292;2022-07-29T00:02:35;883.25;;;795.08;;
22015;SDS011;11172;51.698;-0.292;2022-07-29T00:05:01;894.50;;;806.67;;
22015;SDS011;11172;51.698;-0.292;2022-07-29T00:07:27;902.05;;;814.28;;
22015;SDS011;11172;51.698;-0.292;2022-07-29T00:09:53;887.97;;;800.40;;
22015;SDS011;11172;51.698;-0.292;2022-07-29T00:12:20;893.47;;;805.58;;
22015;SDS011;11172;51.698;-0.292;2022-07-29T00:14:46;892.63;;;804.60;;
22015;SDS011;11172;51.698;-0.292;2022-07-29T00:17:12;887.33;;;799.83;;
22015;SDS011;11172;51.698;-0.292;2022-07-29T00:19:38;882.58;;;795.90;;
22015;SDS011;11172;51.698;-0.292;2022-07-29T00:22:04;892.97;;;805.90;;
22015;SDS011;11172;51.698;-0.292;2022-07-29T00:24:30;883.15;;;795.53;;
22015;SDS011;11172;51.698;-0.292;2022-07-29T00:26:56;895.20;;;807.95;;
22015;SDS011;11172;51.698;-0.292;2022-07-29T00:29:22;634.05;;;571.85;;
22015;SDS011;11172;51.698;-0.292;2022-07-29T00:31:49;626.45;;;564.90;;
22015;SDS011;11172;51.698;-0.292;2022-07-29T00:34:15;636.75;;;574.10;;
22015;SDS011;11172;51.698;-0.292;2022-07-29T00:36:59;888.85;;;801.03;;
22015;SDS011;11172;51.698;-0.292;2022-07-29T00:39:25;893.47;;;806.33;;
22015;SDS011;11172;51.698;-0.292;2022-07-29T00:41:51;882.00;;;796.42;;
22015;SDS011;11172;51.698;-0.292;2022-07-29T00:44:17;879.28;;;793.38;;
22015;SDS011;11172;51.698;-0.292;2022-07-29T00:46:43;882.90;;;797.28;;
22015;SDS011;11172;51.698;-0.292;2022-07-29T00:49:09;886.00;;;799.53;;
22015;SDS011;11172;51.698;-0.292;2022-07-29T00:51:36;893.55;;;807.50;;
22015;SDS011;11172;51.698;-0.292;2022-07-29T00:54:02;884.35;;;798.38;;
22015;SDS011;11172;51.698;-0.292;2022-07-29T00:56:32;881.13;;;794.83;;
22015;SDS011;11172;51.698;-0.292;2022-07-29T00:58:59;877.75;;;791.42;;
22015;SDS011;11172;51.698;-0.292;2022-07-29T01:01:25;882.40;;;796.55;;
22015;SDS011;11172;51.698;-0.292;2022-07-29T01:03:51;882.28;;;796.60;;
22015;SDS011;11172;51.698;-0.292;2022-07-29T01:06:18;883.53;;;797.72;;
22015;SDS011;11172;51.698;-0.292;2022-07-29T01:08:47;891.70;;;805.65;;
22015;SDS011;11172;51.698;-0.292;2022-07-29T01:11:13;883.42;;;797.72;;
22015;SDS011;11172;51.698;-0.292;2022-07-29T01:13:40;879.78;;;794.30;;
22015;SDS011;11172;51.698;-0.292;2022-07-29T01:16:08;885.78;;;799.45;;
22015;SDS011;11172;51.698;-0.292;2022-07-29T01:18:40;879.33;;;794.33;;
22015;SDS011;11172;51.698;-0.292;2022-07-29T01:21:21;880.55;;;794.65;;
22015;SDS011;11172;51.698;-0.292;2022-07-29T01:29:38;889.03;;;801.47;;
22015;SDS011;11172;51.698;-0.292;2022-07-29T01:34:35;888.70;;;796.25;;
22015;SDS011;11172;51.698;-0.292;2022-07-29T01:39:37;876.05;;;790.05;;
22015;SDS011;11172;51.698;-0.292;2022-07-29T01:42:20;622.88;;;561.65;;
22015;SDS011;11172;51.698;-0.292;2022-07-29T01:44:54;874.45;;;788.10;;
22015;SDS011;11172;51.698;-0.292;2022-07-29T01:47:23;625.67;;;565.08;;
22015;SDS011;11172;51.698;-0.292;2022-07-29T01:49:51;869.05;;;784.20;;
22015;SDS011;11172;51.698;-0.292;2022-07-29T01:52:23;872.33;;;787.17;;
22015;SDS011;11172;51.698;-0.292;2022-07-29T01:54:55;877.67;;;792.17;;
22015;SDS011;11172;51.698;-0.292;2022-07-29T01:57:24;870.33;;;785.85;;
22015;SDS011;11172;51.698;-0.292;2022-07-29T01:59:51;620.60;;;560.15;;
22015;SDS011;11172;51.698;-0.292;2022-07-29T02:02:18;614.15;;;554.45;;
22015;SDS011;11172;51.698;-0.292;2022-07-29T02:04:45;869.70;;;784.78;;
22015;SDS011;11172;51.698;-0.292;2022-07-29T02:07:13;864.97;;;781.47;;
22015;SDS011;11172;51.698;-0.292;2022-07-29T02:09:41;860.38;;;776.20;;
22015;SDS011;11172;51.698;-0.292;2022-07-29T02:12:08;879.00;;;793.38;;
22015;SDS011;11172;51.698;-0.292;2022-07-29T02:14:36;885.85;;;799.35;;
22015;SDS011;11172;51.698;-0.292;2022-07-29T02:17:03;869.42;;;784.85;;
22015;SDS011;11172;51.698;-0.292;2022-07-29T02:19:29;860.90;;;776.58;;
22015;SDS011;11172;51.698;-0.292;2022-07-29T02:21:57;877.40;;;792.22;;
22015;SDS011;11172;51.698;-0.292;2022-07-29T02:24:24;871.47;;;786.10;;
22015;SDS011;11172;51.698;-0.292;2022-07-29T02:26:51;859.20;;;774.60;;
22015;SDS011;11172;51.698;-0.292;2022-07-29T02:29:19;872.22;;;787.03;;
22015;SDS011;11172;51.698;-0.292;2022-07-29T02:31:47;854.00;;;770.70;;
22015;SDS011;11172;51.698;-0.292;2022-07-29T02:34:14;857.05;;;772.42;;
22015;SDS011;11172;51.698;-0.292;2022-07-29T02:36:41;859.13;;;773.83;;
22015;SDS011;11172;51.698;-0.292;2022-07-29T02:39:08;848.92;;;766.15;;
22015;SDS011;11172;51.698;-0.292;2022-07-29T02:41:46;863.05;;;778.30;;
22015;SDS011;11172;51.698;-0.292;2022-07-29T02:44:14;871.97;;;786.50;;
22015;SDS011;11172;51.698;-0.292;2022-07-29T02:46:46;861.20;;;776.60;;
22015;SDS011;11172;51.698;-0.292;2022-07-29T02:49:56;856.93;;;773.00;;
22015;SDS011;11172;51.698;-0.292;2022-07-29T02:52:04;863.25;;;777.25;;
22015;SDS011;11172;51.698;-0.292;2022-07-29T02:57:33;850.35;;;765.35;;
22015;SDS011;11172;51.698;-0.292;2022-07-29T03:00:01;850.00;;;765.88;;
22015;SDS011;11172;51.698;-0.292;2022-07-29T03:02:29;850.67;;;766.17;;
22015;SDS011;11172;51.698;-0.292;2022-07-29T03:04:58;840.78;;;757.25;;
22015;SDS011;11172;51.698;-0.292;2022-07-29T03:07:25;846.53;;;762.58;;
22015;SDS011;11172;51.698;-0.292;2022-07-29T03:09:52;843.03;;;759.33;;
22015;SDS011;11172;51.698;-0.292;2022-07-29T03:12:18;844.22;;;760.00;;
22015;SDS011;11172;51.698;-0.292;2022-07-29T03:14:44;845.15;;;760.55;;
22015;SDS011;11172;51.698;-0.292;2022-07-29T03:17:11;857.05;;;772.50;;
22015;SDS011;11172;51.698;-0.292;2022-07-29T03:19:38;849.25;;;764.40;;
22015;SDS011;11172;51.698;-0.292;2022-07-29T03:22:04;855.67;;;771.10;;
22015;SDS011;11172;51.698;-0.292;2022-07-29T03:24:32;850.17;;;764.92;;
22015;SDS011;11172;51.698;-0.292;2022-07-29T03:26:59;848.00;;;764.03;;
22015;SDS011;11172;51.698;-0.292;2022-07-29T03:29:25;842.50;;;758.25;;
22015;SDS011;11172;51.698;-0.292;2022-07-29T03:31:51;842.35;;;758.67;;
22015;SDS011;11172;51.698;-0.292;2022-07-29T03:34:17;841.97;;;757.67;;
22015;SDS011;11172;51.698;-0.292;2022-07-29T03:36:43;832.85;;;749.20;;
22015;SDS011;11172;51.698;-0.292;2022-07-29T03:39:10;831.67;;;747.72;;
22015;SDS011;11172;51.698;-0.292;2022-07-29T03:41:38;836.50;;;751.63;;
22015;SDS011;11172;51.698;-0.292;2022-07-29T03:44:05;826.55;;;742.33;;
22015;SDS011;11172;51.698;-0.292;2022-07-29T03:46:31;840.40;;;755.35;;
22015;SDS011;11172;51.698;-0.292;2022-07-29T03:48:58;832.97;;;748.15;;
22015;SDS011;11172;51.698;-0.292;2022-07-29T03:51:25;841.97;;;757.08;;
22015;SDS011;11172;51.698;-0.292;2022-07-29T03:53:52;830.20;;;744.80;;
22015;SDS011;11172;51.698;-0.292;2022-07-29T03:56:20;814.50;;;730.30;;
22015;SDS011;11172;51.698;-0.292;2022-07-29T03:58:47;819.92;;;736.45;;
22015;SDS011;11172;51.698;-0.292;2022-07-29T04:01:14;827.65;;;742.65;;
22015;SDS011;11172;51.698;-0.292;2022-07-29T04:03:42;821.85;;;737.63;;
22015;SDS011;11172;51.698;-0.292;2022-07-29T04:06:10;816.78;;;732.47;;
22015;SDS011;11172;51.698;-0.292;2022-07-29T04:08:36;828.03;;;743.03;;
22015;SDS011;11172;51.698;-0.292;2022-07-29T04:11:02;811.67;;;726.88;;
22015;SDS011;11172;51.698;-0.292;2022-07-29T04:13:29;813.28;;;728.70;;
22015;SDS011;11172;51.698;-0.292;2022-07-29T04:15:55;816.22;;;731.58;;
22015;SDS011;11172;51.698;-0.292;2022-07-29T04:18:21;817.03;;;732.10;;
22015;SDS011;11172;51.698;-0.292;2022-07-29T04:20:47;821.63;;;736.53;;
22015;SDS011;11172;51.698;-0.292;2022-07-29T04:23:13;819.20;;;733.92;;
22015;SDS011;11172;51.698;-0.292;2022-07-29T04:25:40;818.63;;;733.80;;
22015;SDS011;11172;51.698;-0.292;2022-07-29T04:28:06;808.78;;;723.72;;
22015;SDS011;11172;51.698;-0.292;2022-07-29T04:30:33;812.90;;;728.25;;
22015;SDS011;11172;51.698;-0.292;2022-07-29T04:33:00;813.15;;;728.40;;
22015;SDS011;11172;51.698;-0.292;2022-07-29T04:35:26;815.83;;;731.15;;
22015;SDS011;11172;51.698;-0.292;2022-07-29T04:37:52;818.20;;;733.38;;
22015;SDS011;11172;51.698;-0.292;2022-07-29T04:40:19;811.65;;;728.67;;
22015;SDS011;11172;51.698;-0.292;2022-07-29T04:42:45;826.05;;;742.97;;
22015;SDS011;11172;51.698;-0.292;2022-07-29T04:45:11;813.58;;;730.65;;
22015;SDS011;11172;51.698;-0.292;2022-07-29T04:47:37;817.53;;;734.13;;
22015;SDS011;11172;51.698;-0.292;2022-07-29T04:50:03;832.55;;;749.47;;
22015;SDS011;11172;51.698;-0.292;2022-07-29T04:52:30;825.45;;;741.90;;
22015;SDS011;11172;51.698;-0.292;2022-07-29T04:54:56;815.97;;;732.97;;
22015;SDS011;11172;51.698;-0.292;2022-07-29T04:57:22;828.38;;;744.28;;
22015;SDS011;11172;51.698;-0.292;2022-07-29T04:59:48;826.70;;;742.78;;
22015;SDS011;11172;51.698;-0.292;2022-07-29T05:02:14;815.05;;;730.97;;
22015;SDS011;11172;51.698;-0.292;2022-07-29T05:04:40;824.65;;;741.45;;
22015;SDS011;11172;51.698;-0.292;2022-07-29T05:07:06;831.60;;;747.40;;
22015;SDS011;11172;51.698;-0.292;2022-07-29T05:09:32;819.03;;;736.00;;
22015;SDS011;11172;51.698;-0.292;2022-07-29T05:12:00;818.97;;;736.00;;
22015;SDS011;11172;51.698;-0.292;2022-07-29T05:14:26;823.72;;;740.42;;
22015;SDS011;11172;51.698;-0.292;2022-07-29T05:16:52;818.45;;;734.80;;
22015;SDS011;11172;51.698;-0.292;2022-07-29T05:19:21;817.22;;;733.28;;
22015;SDS011;11172;51.698;-0.292;2022-07-29T05:21:47;799.75;;;716.55;;
22015;SDS011;11172;51.698;-0.292;2022-07-29T05:24:13;807.25;;;723.65;;
22015;SDS011;11172;51.698;-0.292;2022-07-29T05:26:39;813.38;;;731.22;;
22015;SDS011;11172;51.698;-0.292;2022-07-29T05:29:05;814.65;;;732.70;;
22015;SDS011;11172;51.698;-0.292;2022-07-29T05:31:32;827.35;;;744.60;;
22015;SDS011;11172;51.698;-0.292;2022-07-29T05:33:58;828.53;;;745.50;;
22015;SDS011;11172;51.698;-0.292;2022-07-29T05:36:24;832.05;;;749.47;;
22015;SDS011;11172;51.698;-0.292;2022-07-29T05:38:50;845.13;;;761.97;;
22015;SDS011;11172;51.698;-0.292;2022-07-29T05:41:17;843.22;;;761.70;;
22015;SDS011;11172;51.698;-0.292;2022-07-29T05:43:43;847.75;;;767.33;;
22015;SDS011;11172;51.698;-0.292;2022-07-29T05:46:09;840.90;;;762.70;;
22015;SDS011;11172;51.698;-0.292;2022-07-29T05:48:35;838.78;;;763.10;;
22015;SDS011;11172;51.698;-0.292;2022-07-29T05:51:01;798.95;;;728.05;;
22015;SDS011;11172;51.698;-0.292;2022-07-29T05:53:27;788.35;;;720.00;;
22015;SDS011;11172;51.698;-0.292;2022-07-29T05:55:53;756.13;;;691.40;;
22015;SDS011;11172;51.698;-0.292;2022-07-29T05:58:19;708.67;;;648.90;;
22015;SDS011;11172;51.698;-0.292;2022-07-29T06:00:46;658.63;;;602.90;;
22015;SDS011;11172;51.698;-0.292;2022-07-29T06:03:12;621.38;;;568.92;;
22015;SDS011;11172;51.698;-0.292;2022-07-29T06:05:38;567.47;;;518.97;;
22015;SDS011;11172;51.698;-0.292;2022-07-29T06:08:04;519.50;;;475.15;;
22015;SDS011;11172;51.698;-0.292;2022-07-29T06:10:36;466.60;;;426.08;;
22015;SDS011;11172;51.698;-0.292;2022-07-29T06:13:02;426.25;;;389.05;;
22015;SDS011;11172;51.698;-0.292;2022-07-29T06:15:28;391.88;;;357.35;;
22015;SDS011;11172;51.698;-0.292;2022-07-29T06:17:54;353.27;;;321.58;;
22015;SDS011;11172;51.698;-0.292;2022-07-29T06:20:20;319.15;;;290.13;;
22015;SDS011;11172;51.698;-0.292;2022-07-29T06:22:46;280.10;;;254.23;;
22015;SDS011;11172;51.698;-0.292;2022-07-29T06:25:12;261.90;;;237.57;;
22015;SDS011;11172;51.698;-0.292;2022-07-29T06:27:39;222.23;;;201.75;;
22015;SDS011;11172;51.698;-0.292;2022-07-29T06:30:05;222.90;;;201.82;;
22015;SDS011;11172;51.698;-0.292;2022-07-29T06:32:35;206.45;;;186.85;;
22015;SDS011;11172;51.698;-0.292;2022-07-29T06:35:01;202.27;;;183.18;;
22015;SDS011;11172;51.698;-0.292;2022-07-29T06:37:27;186.70;;;169.07;;
22015;SDS011;11172;51.698;-0.292;2022-07-29T06:39:53;170.93;;;154.63;;
22015;SDS011;11172;51.698;-0.292;2022-07-29T06:42:42;172.57;;;155.02;;
22015;SDS011;11172;51.698;-0.292;2022-07-29T06:45:09;154.27;;;138.63;;
22015;SDS011;11172;51.698;-0.292;2022-07-29T06:47:35;143.30;;;129.18;;
22015;SDS011;11172;51.698;-0.292;2022-07-29T06:50:01;139.13;;;125.30;;
22015;SDS011;11172;51.698;-0.292;2022-07-29T06:52:27;128.77;;;116.47;;
22015;SDS011;11172;51.698;-0.292;2022-07-29T06:54:53;119.88;;;107.93;;
22015;SDS011;11172;51.698;-0.292;2022-07-29T06:57:20;112.20;;;100.95;;
22015;SDS011;11172;51.698;-0.292;2022-07-29T06:59:46;98.10;;;88.40;;
22015;SDS011;11172;51.698;-0.292;2022-07-29T07:02:12;99.75;;;89.72;;
22015;SDS011;11172;51.698;-0.292;2022-07-29T07:04:38;100.40;;;90.18;;
22015;SDS011;11172;51.698;-0.292;2022-07-29T07:07:04;97.57;;;87.85;;
22015;SDS011;11172;51.698;-0.292;2022-07-29T07:09:30;96.47;;;86.18;;
22015;SDS011;11172;51.698;-0.292;2022-07-29T07:11:56;87.57;;;78.47;;
22015;SDS011;11172;51.698;-0.292;2022-07-29T07:14:22;80.93;;;72.65;;
22015;SDS011;11172;51.698;-0.292;2022-07-29T07:16:49;77.95;;;70.13;;
22015;SDS011;11172;51.698;-0.292;2022-07-29T07:19:14;70.80;;;63.15;;
22015;SDS011;11172;51.698;-0.292;2022-07-29T07:21:40;64.25;;;57.65;;
22015;SDS011;11172;51.698;-0.292;2022-07-29T07:24:06;53.58;;;48.20;;
22015;SDS011;11172;51.698;-0.292;2022-07-29T07:26:32;55.95;;;49.88;;
22015;SDS011;11172;51.698;-0.292;2022-07-29T07:28:58;56.75;;;46.83;;
22015;SDS011;11172;51.698;-0.292;2022-07-29T07:31:25;53.72;;;47.20;;
22015;SDS011;11172;51.698;-0.292;2022-07-29T07:33:51;50.60;;;45.25;;
22015;SDS011;11172;51.698;-0.292;2022-07-29T07:36:18;46.80;;;41.75;;
22015;SDS011;11172;51.698;-0.292;2022-07-29T07:38:44;46.42;;;39.38;;
22015;SDS011;11172;51.698;-0.292;2022-07-29T07:41:10;44.85;;;40.20;;
22015;SDS011;11172;51.698;-0.292;2022-07-29T07:43:36;45.10;;;37.45;;
22015;SDS011;11172;51.698;-0.292;2022-07-29T07:46:02;40.45;;;36.42;;
22015;SDS011;11172;51.698;-0.292;2022-07-29T07:48:28;43.17;;;38.45;;
22015;SDS011;11172;51.698;-0.292;2022-07-29T07:50:54;40.65;;;31.25;;
22015;SDS011;11172;51.698;-0.292;2022-07-29T07:53:21;36.45;;;32.65;;
22015;SDS011;11172;51.698;-0.292;2022-07-29T07:55:47;30.73;;;27.67;;
22015;SDS011;11172;51.698;-0.292;2022-07-29T07:58:13;25.80;;;23.17;;
22015;SDS011;11172;51.698;-0.292;2022-07-29T08:00:39;24.42;;;21.80;;
22015;SDS011;11172;51.698;-0.292;2022-07-29T08:03:05;21.92;;;19.38;;
22015;SDS011;11172;51.698;-0.292;2022-07-29T08:05:32;24.58;;;19.10;;
22015;SDS011;11172;51.698;-0.292;2022-07-29T08:07:58;17.73;;;15.88;;
22015;SDS011;11172;51.698;-0.292;2022-07-29T08:10:24;16.83;;;14.98;;
22015;SDS011;11172;51.698;-0.292;2022-07-29T08:13:09;14.55;;;13.00;;
22015;SDS011;11172;51.698;-0.292;2022-07-29T08:15:38;14.65;;;11.13;;
22015;SDS011;11172;51.698;-0.292;2022-07-29T08:18:04;13.48;;;9.93;;
22015;SDS011;11172;51.698;-0.292;2022-07-29T08:20:30;16.60;;;9.75;;
22015;SDS011;11172;51.698;-0.292;2022-07-29T08:22:58;12.10;;;8.32;;
22015;SDS011;11172;51.698;-0.292;2022-07-29T08:25:24;7.82;;;6.85;;
22015;SDS011;11172;51.698;-0.292;2022-07-29T08:27:50;18.95;;;7.43;;
22015;SDS011;11172;51.698;-0.292;2022-07-29T08:30:16;7.03;;;6.07;;
22015;SDS011;11172;51.698;-0.292;2022-07-29T08:32:42;13.90;;;4.88;;
22015;SDS011;11172;51.698;-0.292;2022-07-29T08:35:08;7.43;;;4.28;;
22015;SDS011;11172;51.698;-0.292;2022-07-29T08:37:34;9.15;;;3.90;;
22015;SDS011;11172;51.698;-0.292;2022-07-29T08:40:01;5.50;;;3.70;;
22015;SDS011;11172;51.698;-0.292;2022-07-29T08:42:27;5.30;;;3.60;;
22015;SDS011;11172;51.698;-0.292;2022-07-29T08:44:53;8.63;;;4.00;;
22015;SDS011;11172;51.698;-0.292;2022-07-29T08:47:19;9.93;;;3.00;;
22015;SDS011;11172;51.698;-0.292;2022-07-29T08:49:45;3.42;;;2.78;;
22015;SDS011;11172;51.698;-0.292;2022-07-29T08:52:13;5.70;;;2.53;;
22015;SDS011;11172;51.698;-0.292;2022-07-29T08:54:39;5.50;;;2.58;;
22015;SDS011;11172;51.698;-0.292;2022-07-29T08:57:09;8.27;;;2.58;;
22015;SDS011;11172;51.698;-0.292;2022-07-29T08:59:35;5.13;;;2.65;;
22015;SDS011;11172;51.698;-0.292;2022-07-29T09:02:03;6.03;;;2.08;;
22015;SDS011;11172;51.698;-0.292;2022-07-29T09:04:29;6.90;;;2.70;;
22015;SDS011;11172;51.698;-0.292;2022-07-29T09:06:56;1.92;;;1.48;;
22015;SDS011;11172;51.698;-0.292;2022-07-29T09:09:23;5.57;;;3.03;;
22015;SDS011;11172;51.698;-0.292;2022-07-29T09:11:49;6.70;;;2.17;;
22015;SDS011;11172;51.698;-0.292;2022-07-29T09:14:15;5.78;;;1.67;;
22015;SDS011;11172;51.698;-0.292;2022-07-29T09:16:49;17.80;;;1.85;;
22015;SDS011;11172;51.698;-0.292;2022-07-29T09:19:19;2.42;;;1.30;;
22015;SDS011;11172;51.698;-0.292;2022-07-29T09:21:46;3.55;;;1.70;;
22015;SDS011;11172;51.698;-0.292;2022-07-29T09:24:40;6.18;;;1.58;;
22015;SDS011;11172;51.698;-0.292;2022-07-29T09:27:10;2.90;;;1.55;;
22015;SDS011;11172;51.698;-0.292;2022-07-29T09:29:37;2.15;;;1.33;;
22015;SDS011;11172;51.698;-0.292;2022-07-29T09:32:05;7.95;;;1.98;;
22015;SDS011;11172;51.698;-0.292;2022-07-29T09:34:32;3.97;;;1.65;;
22015;SDS011;11172;51.698;-0.292;2022-07-29T09:36:58;5.20;;;1.55;;
22015;SDS011;11172;51.698;-0.292;2022-07-29T09:39:31;2.00;;;1.30;;
22015;SDS011;11172;51.698;-0.292;2022-07-29T09:41:58;4.03;;;1.38;;
22015;SDS011;11172;51.698;-0.292;2022-07-29T09:44:25;7.00;;;1.17;;
22015;SDS011;11172;51.698;-0.292;2022-07-29T09:46:55;7.60;;;1.60;;
22015;SDS011;11172;51.698;-0.292;2022-07-29T09:49:21;4.70;;;1.48;;
22015;SDS011;11172;51.698;-0.292;2022-07-29T09:51:47;8.88;;;1.08;;
22015;SDS011;11172;51.698;-0.292;2022-07-29T09:54:27;4.75;;;1.70;;
22015;SDS011;11172;51.698;-0.292;2022-07-29T09:56:53;3.38;;;1.42;;
22015;SDS011;11172;51.698;-0.292;2022-07-29T09:59:20;1.95;;;0.85;;
22015;SDS011;11172;51.698;-0.292;2022-07-29T10:01:49;7.18;;;1.48;;
22015;SDS011;11172;51.698;-0.292;2022-07-29T10:04:15;3.85;;;1.20;;
22015;SDS011;11172;51.698;-0.292;2022-07-29T10:06:58;4.10;;;1.35;;
22015;SDS011;11172;51.698;-0.292;2022-07-29T10:09:24;2.22;;;1.27;;
22015;SDS011;11172;51.698;-0.292;2022-07-29T10:12:10;1.83;;;1.13;;
22015;SDS011;11172;51.698;-0.292;2022-07-29T10:14:39;2.58;;;0.82;;
22015;SDS011;11172;51.698;-0.292;2022-07-29T10:17:06;4.00;;;1.10;;
22015;SDS011;11172;51.698;-0.292;2022-07-29T10:19:32;5.45;;;1.92;;
22015;SDS011;11172;51.698;-0.292;2022-07-29T10:21:58;3.25;;;1.25;;
22015;SDS011;11172;51.698;-0.292;2022-07-29T10:24:28;4.30;;;1.48;;
22015;SDS011;11172;51.698;-0.292;2022-07-29T10:26:55;4.43;;;1.02;;
22015;SDS011;11172;51.698;-0.292;2022-07-29T10:29:21;3.28;;;1.42;;
22015;SDS011;11172;51.698;-0.292;2022-07-29T10:37:05;2.13;;;1.20;;
22015;SDS011;11172;51.698;-0.292;2022-07-29T10:39:43;6.18;;;1.42;;
22015;SDS011;11172;51.698;-0.292;2022-07-29T10:44:42;5.05;;;1.63;;
22015;SDS011;11172;51.698;-0.292;2022-07-29T10:47:11;7.80;;;1.35;;
22015;SDS011;11172;51.698;-0.292;2022-07-29T10:49:54;2.58;;;1.45;;
22015;SDS011;11172;51.698;-0.292;2022-07-29T10:52:21;2.85;;;1.60;;
22015;SDS011;11172;51.698;-0.292;2022-07-29T10:54:49;3.55;;;1.42;;
22015;SDS011;11172;51.698;-0.292;2022-07-29T10:57:23;3.92;;;1.65;;
22015;SDS011;11172;51.698;-0.292;2022-07-29T11:07:21;3.42;;;1.70;;
22015;SDS011;11172;51.698;-0.292;2022-07-29T11:15:05;2.97;;;1.10;;
22015;SDS011;11172;51.698;-0.292;2022-07-29T11:23:01;5.10;;;2.17;;
22015;SDS011;11172;51.698;-0.292;2022-07-29T11:25:27;5.03;;;1.63;;
22015;SDS011;11172;51.698;-0.292;2022-07-29T11:27:54;4.90;;;1.90;;
22015;SDS011;11172;51.698;-0.292;2022-07-29T11:33:30;3.83;;;2.33;;
22015;SDS011;11172;51.698;-0.292;2022-07-29T11:36:09;3.28;;;2.35;;
22015;SDS011;11172;51.698;-0.292;2022-07-29T11:38:35;3.97;;;2.88;;
22015;SDS011;11172;51.698;-0.292;2022-07-29T11:46:12;7.10;;;5.28;;
22015;SDS011;11172;51.698;-0.292;2022-07-29T11:48:41;9.00;;;6.28;;
22015;SDS011;11172;51.698;-0.292;2022-07-29T11:51:10;13.07;;;6.43;;
22015;SDS011;11172;51.698;-0.292;2022-07-29T11:53:37;12.13;;;6.75;;
22015;SDS011;11172;51.698;-0.292;2022-07-29T11:56:03;9.57;;;8.02;;
22015;SDS011;11172;51.698;-0.292;2022-07-29T11:58:30;14.25;;;9.30;;
22015;SDS011;11172;51.698;-0.292;2022-07-29T12:00:57;11.10;;;9.93;;
22015;SDS011;11172;51.698;-0.292;2022-07-29T12:03:24;11.98;;;10.18;;
22015;SDS011;11172;51.698;-0.292;2022-07-29T12:05:50;14.18;;;11.15;;
22015;SDS011;11172;51.698;-0.292;2022-07-29T12:10:47;17.50;;;13.52;;
22015;SDS011;11172;51.698;-0.292;2022-07-29T12:13:14;19.20;;;13.95;;
22015;SDS011;11172;51.698;-0.292;2022-07-29T12:15:40;18.70;;;15.35;;
22015;SDS011;11172;51.698;-0.292;2022-07-29T12:18:09;19.77;;;15.27;;
22015;SDS011;11172;51.698;-0.292;2022-07-29T12:20:36;20.50;;;17.50;;
22015;SDS011;11172;51.698;-0.292;2022-07-29T12:23:04;26.95;;;19.33;;
22015;SDS011;11172;51.698;-0.292;2022-07-29T12:25:32;23.05;;;19.30;;
22015;SDS011;11172;51.698;-0.292;2022-07-29T12:27:59;28.25;;;22.73;;
22015;SDS011;11172;51.698;-0.292;2022-07-29T12:30:34;28.15;;;24.27;;
22015;SDS011;11172;51.698;-0.292;2022-07-29T12:33:00;32.42;;;26.95;;
22015;SDS011;11172;51.698;-0.292;2022-07-29T12:35:26;34.63;;;26.48;;
22015;SDS011;11172;51.698;-0.292;2022-07-29T12:37:52;31.90;;;25.77;;
22015;SDS011;11172;51.698;-0.292;2022-07-29T12:40:19;31.35;;;28.00;;
22015;SDS011;11172;51.698;-0.292;2022-07-29T12:45:32;31.75;;;28.45;;
22015;SDS011;11172;51.698;-0.292;2022-07-29T12:47:58;30.83;;;27.70;;
22015;SDS011;11172;51.698;-0.292;2022-07-29T12:50:24;34.65;;;31.25;;
22015;SDS011;11172;51.698;-0.292;2022-07-29T12:52:50;38.03;;;34.22;;
22015;SDS011;11172;51.698;-0.292;2022-07-29T12:55:37;41.90;;;37.58;;
22015;SDS011;11172;51.698;-0.292;2022-07-29T12:58:02;42.67;;;38.35;;
22015;SDS011;11172;51.698;-0.292;2022-07-29T13:00:28;45.35;;;38.80;;
22015;SDS011;11172;51.698;-0.292;2022-07-29T13:02:56;43.78;;;39.30;;
22015;SDS011;11172;51.698;-0.292;2022-07-29T13:05:22;43.83;;;39.53;;
22015;SDS011;11172;51.698;-0.292;2022-07-29T13:07:49;45.20;;;40.47;;
22015;SDS011;11172;51.698;-0.292;2022-07-29T13:10:19;46.35;;;41.78;;
22015;SDS011;11172;51.698;-0.292;2022-07-29T13:13:05;52.28;;;45.03;;
22015;SDS011;11172;51.698;-0.292;2022-07-29T13:15:31;50.95;;;46.00;;
22015;SDS011;11172;51.698;-0.292;2022-07-29T13:17:58;53.95;;;45.95;;
22015;SDS011;11172;51.698;-0.292;2022-07-29T13:20:25;53.55;;;48.17;;
22015;SDS011;11172;51.698;-0.292;2022-07-29T13:22:59;55.55;;;50.08;;
22015;SDS011;11172;51.698;-0.292;2022-07-29T13:25:26;58.35;;;52.08;;
22015;SDS011;11172;51.698;-0.292;2022-07-29T13:27:52;59.05;;;53.08;;
22015;SDS011;11172;51.698;-0.292;2022-07-29T13:30:19;57.33;;;51.45;;
22015;SDS011;11172;51.698;-0.292;2022-07-29T13:32:46;61.65;;;55.45;;
22015;SDS011;11172;51.698;-0.292;2022-07-29T13:35:12;62.92;;;56.55;;
22015;SDS011;11172;51.698;-0.292;2022-07-29T13:37:38;62.40;;;55.88;;
22015;SDS011;11172;51.698;-0.292;2022-07-29T13:40:08;65.53;;;58.30;;
22015;SDS011;11172;51.698;-0.292;2022-07-29T13:42:35;65.88;;;59.33;;
22015;SDS011;11172;51.698;-0.292;2022-07-29T13:45:01;70.82;;;58.30;;
22015;SDS011;11172;51.698;-0.292;2022-07-29T13:47:27;72.07;;;64.50;;
22015;SDS011;11172;51.698;-0.292;2022-07-29T13:49:54;70.70;;;62.00;;
22015;SDS011;11172;51.698;-0.292;2022-07-29T13:52:20;70.90;;;63.75;;
22015;SDS011;11172;51.698;-0.292;2022-07-29T13:54:46;74.93;;;67.30;;
22015;SDS011;11172;51.698;-0.292;2022-07-29T13:57:13;78.57;;;70.45;;
22015;SDS011;11172;51.698;-0.292;2022-07-29T13:59:40;78.80;;;70.75;;
22015;SDS011;11172;51.698;-0.292;2022-07-29T14:02:06;82.00;;;73.80;;
22015;SDS011;11172;51.698;-0.292;2022-07-29T14:04:33;84.22;;;75.97;;
22015;SDS011;11172;51.698;-0.292;2022-07-29T14:06:59;86.70;;;77.63;;
22015;SDS011;11172;51.698;-0.292;2022-07-29T14:09:25;88.80;;;79.32;;
22015;SDS011;11172;51.698;-0.292;2022-07-29T14:11:51;88.40;;;79.07;;
22015;SDS011;11172;51.698;-0.292;2022-07-29T14:14:17;88.35;;;79.47;;
22015;SDS011;11172;51.698;-0.292;2022-07-29T14:16:43;93.40;;;84.13;;
22015;SDS011;11172;51.698;-0.292;2022-07-29T14:19:09;94.18;;;84.68;;
22015;SDS011;11172;51.698;-0.292;2022-07-29T14:21:36;94.43;;;84.80;;
22015;SDS011;11172;51.698;-0.292;2022-07-29T14:24:03;93.80;;;84.63;;
22015;SDS011;11172;51.698;-0.292;2022-07-29T14:26:29;93.95;;;84.68;;
22015;SDS011;11172;51.698;-0.292;2022-07-29T14:28:55;96.55;;;87.00;;
22015;SDS011;11172;51.698;-0.292;2022-07-29T14:31:21;98.47;;;87.95;;
22015;SDS011;11172;51.698;-0.292;2022-07-29T14:33:47;99.60;;;89.57;;
22015;SDS011;11172;51.698;-0.292;2022-07-29T14:36:13;103.18;;;93.03;;
22015;SDS011;11172;51.698;-0.292;2022-07-29T14:38:39;106.38;;;95.88;;
22015;SDS011;11172;51.698;-0.292;2022-07-29T14:41:05;108.43;;;97.78;;
22015;SDS011;11172;51.698;-0.292;2022-07-29T14:43:31;104.10;;;93.78;;
22015;SDS011;11172;51.698;-0.292;2022-07-29T14:45:57;108.93;;;98.22;;
22015;SDS011;11172;51.698;-0.292;2022-07-29T14:48:23;109.40;;;98.00;;
22015;SDS011;11172;51.698;-0.292;2022-07-29T14:50:49;113.38;;;102.20;;
22015;SDS011;11172;51.698;-0.292;2022-07-29T14:53:15;108.78;;;97.55;;
22015;SDS011;11172;51.698;-0.292;2022-07-29T14:55:41;108.10;;;97.50;;